sensor_id;sensor_type;location;lat;lon;timestamp;pressure;altitude;pressure_sealevel;temperature;humidity
34983;BME280;21187;50.976;13.720;2023-03-03T00:03:58;98679.63;;;2.74;52.07
34983;BME280;21187;50.976;13.720;2023-03-03T00:09:00;98685.00;;;2.69;52.86
34983;BME280;21187;50.976;13.720;2023-03-03T00:14:01;98675.53;;;2.58;52.79
34983;BME280;21187;50.976;13.720;2023-03-03T00:19:13;98691.81;;;2.61;53.26
34983;BME280;21187;50.976;13.720;2023-03-03T00:34:40;98699.59;;;2.58;53.53
34983;BME280;21187;50.976;13.720;2023-03-03T00:39:42;98687.69;;;2.69;53.28
34983;BME280;21187;50.976;13.720;2023-03-03T00:44:45;98688.16;;;2.76;53.53
34983;BME280;21187;50.976;13.720;2023-03-03T00:49:47;98697.56;;;2.74;53.07
34983;BME280;21187;50.976;13.720;2023-03-03T00:54:49;98697.31;;;2.70;53.48
34983;BME280;21187;50.976;13.720;2023-03-03T00:59:51;98691.34;;;2.78;52.98
34983;BME280;21187;50.976;13.720;2023-03-03T01:04:53;98697.16;;;2.86;52.42
34983;BME280;21187;50.976;13.720;2023-03-03T01:09:58;98698.47;;;2.88;52.52
34983;BME280;21187;50.976;13.720;2023-03-03T01:15:01;98686.09;;;2.92;52.12
34983;BME280;21187;50.976;13.720;2023-03-03T01:20:03;98694.34;;;2.96;51.90
34983;BME280;21187;50.976;13.720;2023-03-03T01:25:06;98702.22;;;2.63;53.36
34983;BME280;21187;50.976;13.720;2023-03-03T01:30:08;98703.19;;;2.72;52.59
34983;BME280;21187;50.976;13.720;2023-03-03T01:35:10;98703.88;;;2.83;52.34
34983;BME280;21187;50.976;13.720;2023-03-03T01:40:19;98707.19;;;2.75;52.49
34983;BME280;21187;50.976;13.720;2023-03-03T01:55:51;98698.81;;;2.28;54.26
34983;BME280;21187;50.976;13.720;2023-03-03T02:00:59;98691.47;;;2.39;53.75
34983;BME280;21187;50.976;13.720;2023-03-03T02:06:06;98685.06;;;2.40;53.80
34983;BME280;21187;50.976;13.720;2023-03-03T02:11:09;98684.81;;;2.36;53.92
34983;BME280;21187;50.976;13.720;2023-03-03T02:16:11;98678.69;;;2.36;54.39
34983;BME280;21187;50.976;13.720;2023-03-03T02:21:19;98676.81;;;2.36;54.51
34983;BME280;21187;50.976;13.720;2023-03-03T02:26:24;98683.25;;;2.35;54.86
34983;BME280;21187;50.976;13.720;2023-03-03T02:31:32;98680.00;;;2.38;54.07
34983;BME280;21187;50.976;13.720;2023-03-03T02:36:36;98686.09;;;2.44;53.64
34983;BME280;21187;50.976;13.720;2023-03-03T02:47:04;98679.59;;;2.26;54.26
34983;BME280;21187;50.976;13.720;2023-03-03T02:52:08;98676.84;;;2.02;55.71
34983;BME280;21187;50.976;13.720;2023-03-03T02:57:13;98688.47;;;1.87;56.26
34983;BME280;21187;50.976;13.720;2023-03-03T03:02:15;98687.50;;;2.07;55.47
34983;BME280;21187;50.976;13.720;2023-03-03T03:07:20;98687.66;;;2.21;54.51
34983;BME280;21187;50.976;13.720;2023-03-03T03:12:22;98686.38;;;2.13;55.20
34983;BME280;21187;50.976;13.720;2023-03-03T03:17:27;98702.75;;;2.06;54.64
34983;BME280;21187;50.976;13.720;2023-03-03T03:22:29;98696.34;;;2.07;54.89
34983;BME280;21187;50.976;13.720;2023-03-03T03:27:31;98697.94;;;2.03;54.68
34983;BME280;21187;50.976;13.720;2023-03-03T03:32:33;98697.41;;;2.06;54.59
34983;BME280;21187;50.976;13.720;2023-03-03T03:37:35;98701.09;;;2.10;54.19
34983;BME280;21187;50.976;13.720;2023-03-03T03:42:37;98699.47;;;2.14;53.84
34983;BME280;21187;50.976;13.720;2023-03-03T03:47:41;98694.13;;;2.14;54.18
34983;BME280;21187;50.976;13.720;2023-03-03T03:52:43;98688.53;;;2.11;53.60
34983;BME280;21187;50.976;13.720;2023-03-03T03:57:46;98683.75;;;2.08;53.86
34983;BME280;21187;50.976;13.720;2023-03-03T04:02:49;98690.16;;;1.77;55.17
34983;BME280;21187;50.976;13.720;2023-03-03T04:07:52;98709.34;;;1.79;55.11
34983;BME280;21187;50.976;13.720;2023-03-03T04:12:54;98719.50;;;1.82;54.79
34983;BME280;21187;50.976;13.720;2023-03-03T04:17:57;98703.53;;;1.72;55.05
34983;BME280;21187;50.976;13.720;2023-03-03T04:23:00;98716.28;;;1.80;55.02
34983;BME280;21187;50.976;13.720;2023-03-03T04:28:03;98726.69;;;1.82;54.29
34983;BME280;21187;50.976;13.720;2023-03-03T04:33:06;98727.53;;;1.77;54.28
34983;BME280;21187;50.976;13.720;2023-03-03T04:38:10;98733.94;;;1.76;54.21
34983;BME280;21187;50.976;13.720;2023-03-03T04:43:13;98737.72;;;1.70;54.14
34983;BME280;21187;50.976;13.720;2023-03-03T04:48:15;98734.53;;;1.68;54.04
34983;BME280;21187;50.976;13.720;2023-03-03T04:53:17;98743.13;;;1.65;53.96
34983;BME280;21187;50.976;13.720;2023-03-03T04:58:20;98744.41;;;1.67;54.12
34983;BME280;21187;50.976;13.720;2023-03-03T05:03:23;98752.69;;;1.66;54.27
34983;BME280;21187;50.976;13.720;2023-03-03T05:08:25;98751.13;;;1.65;54.37
34983;BME280;21187;50.976;13.720;2023-03-03T05:13:27;98754.31;;;1.67;54.50
34983;BME280;21187;50.976;13.720;2023-03-03T05:18:29;98754.03;;;1.69;54.53
34983;BME280;21187;50.976;13.720;2023-03-03T05:23:31;98762.59;;;1.65;54.68
34983;BME280;21187;50.976;13.720;2023-03-03T05:28:33;98759.06;;;1.70;54.39
34983;BME280;21187;50.976;13.720;2023-03-03T05:33:35;98744.66;;;1.71;54.92
34983;BME280;21187;50.976;13.720;2023-03-03T05:38:36;98749.50;;;1.69;55.23
34983;BME280;21187;50.976;13.720;2023-03-03T05:43:38;98752.69;;;1.66;55.52
34983;BME280;21187;50.976;13.720;2023-03-03T05:48:41;98736.13;;;1.69;55.58
34983;BME280;21187;50.976;13.720;2023-03-03T05:53:43;98758.66;;;1.53;56.46
34983;BME280;21187;50.976;13.720;2023-03-03T05:58:44;98758.66;;;1.53;56.68
34983;BME280;21187;50.976;13.720;2023-03-03T06:03:46;98756.25;;;1.51;56.95
34983;BME280;21187;50.976;13.720;2023-03-03T06:08:48;98753.13;;;1.39;57.71
34983;BME280;21187;50.976;13.720;2023-03-03T06:13:50;98749.06;;;1.46;57.59
34983;BME280;21187;50.976;13.720;2023-03-03T06:18:52;98755.16;;;1.57;57.15
34983;BME280;21187;50.976;13.720;2023-03-03T06:23:53;98753.06;;;1.49;57.64
34983;BME280;21187;50.976;13.720;2023-03-03T06:28:55;98747.78;;;1.39;58.33
34983;BME280;21187;50.976;13.720;2023-03-03T06:33:57;98751.72;;;1.52;58.06
34983;BME280;21187;50.976;13.720;2023-03-03T06:38:59;98733.81;;;1.57;57.83
34983;BME280;21187;50.976;13.720;2023-03-03T06:44:01;98756.69;;;1.69;57.59
34983;BME280;21187;50.976;13.720;2023-03-03T06:49:03;98768.91;;;1.80;57.29
34983;BME280;21187;50.976;13.720;2023-03-03T06:54:14;98766.97;;;1.91;57.00
34983;BME280;21187;50.976;13.720;2023-03-03T06:59:18;98777.63;;;1.96;56.80
34983;BME280;21187;50.976;13.720;2023-03-03T07:04:24;98785.13;;;1.89;57.32
34983;BME280;21187;50.976;13.720;2023-03-03T07:09:29;98787.31;;;1.81;57.45
34983;BME280;21187;50.976;13.720;2023-03-03T07:14:32;98808.06;;;1.95;56.92
34983;BME280;21187;50.976;13.720;2023-03-03T07:19:36;98813.34;;;2.05;56.64
34983;BME280;21187;50.976;13.720;2023-03-03T07:24:38;98792.56;;;2.02;56.97
34983;BME280;21187;50.976;13.720;2023-03-03T07:29:40;98805.38;;;2.00;56.94
34983;BME280;21187;50.976;13.720;2023-03-03T07:34:47;98793.03;;;2.09;56.83
34983;BME280;21187;50.976;13.720;2023-03-03T07:39:49;98799.16;;;2.10;56.89
34983;BME280;21187;50.976;13.720;2023-03-03T07:44:53;98818.13;;;2.08;56.90
34983;BME280;21187;50.976;13.720;2023-03-03T07:49:59;98831.47;;;2.13;57.16
34983;BME280;21187;50.976;13.720;2023-03-03T08:05:37;98823.16;;;2.15;57.31
34983;BME280;21187;50.976;13.720;2023-03-03T08:15:59;98820.19;;;2.22;56.84
34983;BME280;21187;50.976;13.720;2023-03-03T08:21:13;98824.41;;;2.28;56.81
34983;BME280;21187;50.976;13.720;2023-03-03T08:26:16;98822.78;;;2.32;56.44
34983;BME280;21187;50.976;13.720;2023-03-03T08:31:18;98809.94;;;2.34;56.87
34983;BME280;21187;50.976;13.720;2023-03-03T08:36:39;98822.84;;;2.22;57.26
34983;BME280;21187;50.976;13.720;2023-03-03T08:41:40;98825.59;;;2.16;57.96
34983;BME280;21187;50.976;13.720;2023-03-03T08:46:44;98818.56;;;2.26;57.63
34983;BME280;21187;50.976;13.720;2023-03-03T08:51:46;98821.22;;;2.31;57.74
34983;BME280;21187;50.976;13.720;2023-03-03T08:56:48;98836.94;;;2.38;57.73
34983;BME280;21187;50.976;13.720;2023-03-03T09:01:50;98838.31;;;2.30;57.99
34983;BME280;21187;50.976;13.720;2023-03-03T09:06:53;98833.97;;;2.39;57.64
34983;BME280;21187;50.976;13.720;2023-03-03T09:11:57;98823.75;;;2.46;58.14
34983;BME280;21187;50.976;13.720;2023-03-03T09:16:59;98840.06;;;2.45;58.43
34983;BME280;21187;50.976;13.720;2023-03-03T09:22:27;98840.03;;;2.50;58.00
34983;BME280;21187;50.976;13.720;2023-03-03T09:27:34;98856.31;;;2.54;57.59
34983;BME280;21187;50.976;13.720;2023-03-03T09:32:37;98864.38;;;2.48;57.97
34983;BME280;21187;50.976;13.720;2023-03-03T09:37:43;98856.91;;;2.45;58.24
34983;BME280;21187;50.976;13.720;2023-03-03T09:43:29;98861.41;;;2.50;58.06
34983;BME280;21187;50.976;13.720;2023-03-03T10:14:57;98878.34;;;2.40;58.61
34983;BME280;21187;50.976;13.720;2023-03-03T10:37:45;98893.69;;;2.64;57.18
34983;BME280;21187;50.976;13.720;2023-03-03T10:58:45;98897.75;;;2.56;58.39
34983;BME280;21187;50.976;13.720;2023-03-03T11:09:29;98881.81;;;2.75;57.65
34983;BME280;21187;50.976;13.720;2023-03-03T11:14:44;98885.28;;;2.76;57.88
34983;BME280;21187;50.976;13.720;2023-03-03T11:20:23;98880.75;;;2.76;57.80
34983;BME280;21187;50.976;13.720;2023-03-03T11:25:42;98877.22;;;2.81;57.41
34983;BME280;21187;50.976;13.720;2023-03-03T11:36:33;98873.78;;;2.75;58.15
34983;BME280;21187;50.976;13.720;2023-03-03T11:47:30;98862.91;;;2.96;57.38
34983;BME280;21187;50.976;13.720;2023-03-03T11:52:46;98866.91;;;2.98;57.36
34983;BME280;21187;50.976;13.720;2023-03-03T11:58:13;98861.31;;;2.95;57.65
34983;BME280;21187;50.976;13.720;2023-03-03T12:03:30;98861.03;;;2.96;57.60
34983;BME280;21187;50.976;13.720;2023-03-03T12:24:56;98855.50;;;3.17;56.92
34983;BME280;21187;50.976;13.720;2023-03-03T12:40:33;98841.88;;;3.13;57.53
34983;BME280;21187;50.976;13.720;2023-03-03T13:17:33;98817.97;;;3.22;56.89
34983;BME280;21187;50.976;13.720;2023-03-03T13:22:45;98819.78;;;3.27;57.08
34983;BME280;21187;50.976;13.720;2023-03-03T13:27:57;98822.41;;;3.32;56.46
34983;BME280;21187;50.976;13.720;2023-03-03T13:33:13;98819.94;;;3.36;56.88
34983;BME280;21187;50.976;13.720;2023-03-03T13:38:46;98817.16;;;3.46;56.34
34983;BME280;21187;50.976;13.720;2023-03-03T13:44:27;98815.22;;;3.52;56.61
34983;BME280;21187;50.976;13.720;2023-03-03T14:00:31;98797.00;;;3.29;56.50
34983;BME280;21187;50.976;13.720;2023-03-03T14:05:44;98803.16;;;3.30;56.63
34983;BME280;21187;50.976;13.720;2023-03-03T14:16:08;98790.94;;;3.43;56.49
34983;BME280;21187;50.976;13.720;2023-03-03T14:21:15;98793.91;;;3.41;56.13
34983;BME280;21187;50.976;13.720;2023-03-03T14:26:19;98788.56;;;3.41;56.60
34983;BME280;21187;50.976;13.720;2023-03-03T14:31:54;98774.09;;;3.42;56.76
34983;BME280;21187;50.976;13.720;2023-03-03T14:37:09;98771.25;;;3.33;56.08
34983;BME280;21187;50.976;13.720;2023-03-03T14:42:37;98766.41;;;3.55;55.74
34983;BME280;21187;50.976;13.720;2023-03-03T14:47:46;98770.31;;;3.43;55.84
34983;BME280;21187;50.976;13.720;2023-03-03T14:53:05;98764.03;;;3.34;55.83
34983;BME280;21187;50.976;13.720;2023-03-03T15:03:27;98759.28;;;3.26;55.67
34983;BME280;21187;50.976;13.720;2023-03-03T15:08:34;98760.19;;;3.40;55.48
34983;BME280;21187;50.976;13.720;2023-03-03T15:13:37;98760.94;;;3.46;55.28
34983;BME280;21187;50.976;13.720;2023-03-03T15:19:31;98758.03;;;3.42;54.96
34983;BME280;21187;50.976;13.720;2023-03-03T15:24:41;98759.03;;;3.46;55.18
34983;BME280;21187;50.976;13.720;2023-03-03T15:40:39;98755.53;;;2.78;56.99
34983;BME280;21187;50.976;13.720;2023-03-03T15:56:55;98752.03;;;2.54;58.07
34983;BME280;21187;50.976;13.720;2023-03-03T16:17:38;98763.28;;;2.50;57.74
34983;BME280;21187;50.976;13.720;2023-03-03T16:33:26;98767.25;;;2.24;57.88
34983;BME280;21187;50.976;13.720;2023-03-03T16:38:44;98764.59;;;2.24;57.99
34983;BME280;21187;50.976;13.720;2023-03-03T16:49:31;98785.59;;;2.01;58.00
34983;BME280;21187;50.976;13.720;2023-03-03T16:59:54;98769.94;;;1.84;58.65
34983;BME280;21187;50.976;13.720;2023-03-03T17:05:19;98760.81;;;1.95;58.41
34983;BME280;21187;50.976;13.720;2023-03-03T17:10:28;98769.31;;;1.97;58.35
34983;BME280;21187;50.976;13.720;2023-03-03T17:15:41;98769.06;;;1.94;58.64
34983;BME280;21187;50.976;13.720;2023-03-03T17:20:48;98767.84;;;1.81;58.73
34983;BME280;21187;50.976;13.720;2023-03-03T17:26:32;98768.59;;;1.87;58.66
34983;BME280;21187;50.976;13.720;2023-03-03T17:37:11;98776.28;;;1.98;58.50
34983;BME280;21187;50.976;13.720;2023-03-03T17:42:30;98778.50;;;1.86;58.85
34983;BME280;21187;50.976;13.720;2023-03-03T17:58:49;98787.13;;;1.67;59.28
34983;BME280;21187;50.976;13.720;2023-03-03T18:04:37;98789.06;;;1.57;59.69
34983;BME280;21187;50.976;13.720;2023-03-03T18:20:55;98800.94;;;1.30;61.09
34983;BME280;21187;50.976;13.720;2023-03-03T18:26:02;98785.97;;;1.29;61.16
34983;BME280;21187;50.976;13.720;2023-03-03T18:31:18;98799.84;;;1.31;61.46
34983;BME280;21187;50.976;13.720;2023-03-03T18:41:33;98802.72;;;1.95;59.49
34983;BME280;21187;50.976;13.720;2023-03-03T18:46:54;98800.88;;;1.95;59.30
34983;BME280;21187;50.976;13.720;2023-03-03T18:52:19;98805.13;;;1.96;59.53
34983;BME280;21187;50.976;13.720;2023-03-03T18:57:21;98818.44;;;2.02;59.75
34983;BME280;21187;50.976;13.720;2023-03-03T19:02:32;98810.13;;;2.08;59.23
34983;BME280;21187;50.976;13.720;2023-03-03T19:12:51;98797.81;;;2.12;59.56
34983;BME280;21187;50.976;13.720;2023-03-03T19:23:06;98803.06;;;2.23;59.11
34983;BME280;21187;50.976;13.720;2023-03-03T19:44:34;98800.94;;;2.25;59.61
34983;BME280;21187;50.976;13.720;2023-03-03T19:49:52;98795.09;;;2.17;59.31
34983;BME280;21187;50.976;13.720;2023-03-03T19:55:30;98795.63;;;2.20;59.33
34983;BME280;21187;50.976;13.720;2023-03-03T20:00:44;98789.19;;;2.26;59.37
34983;BME280;21187;50.976;13.720;2023-03-03T20:05:55;98784.41;;;2.17;59.63
34983;BME280;21187;50.976;13.720;2023-03-03T20:16:58;98795.09;;;2.17;59.83
34983;BME280;21187;50.976;13.720;2023-03-03T20:27:57;98784.28;;;2.33;59.59
34983;BME280;21187;50.976;13.720;2023-03-03T20:38:36;98778.91;;;2.38;59.82
34983;BME280;21187;50.976;13.720;2023-03-03T21:10:17;98753.22;;;2.42;60.13
34983;BME280;21187;50.976;13.720;2023-03-03T21:15:32;98747.41;;;2.35;60.58
34983;BME280;21187;50.976;13.720;2023-03-03T21:20:36;98740.91;;;2.41;60.67
34983;BME280;21187;50.976;13.720;2023-03-03T21:25:49;98734.78;;;2.41;60.20
34983;BME280;21187;50.976;13.720;2023-03-03T21:31:14;98738.03;;;2.38;60.60
34983;BME280;21187;50.976;13.720;2023-03-03T21:42:12;98736.59;;;2.45;60.52
34983;BME280;21187;50.976;13.720;2023-03-03T21:47:23;98731.25;;;2.45;59.96
34983;BME280;21187;50.976;13.720;2023-03-03T21:52:27;98731.81;;;2.42;60.36
34983;BME280;21187;50.976;13.720;2023-03-03T21:57:29;98724.81;;;2.46;60.51
34983;BME280;21187;50.976;13.720;2023-03-03T22:02:31;98738.44;;;2.50;60.27
34983;BME280;21187;50.976;13.720;2023-03-03T22:07:33;98730.66;;;2.54;60.10
34983;BME280;21187;50.976;13.720;2023-03-03T22:12:35;98723.09;;;2.61;60.16
34983;BME280;21187;50.976;13.720;2023-03-03T22:17:37;98718.84;;;2.55;60.33
34983;BME280;21187;50.976;13.720;2023-03-03T22:22:38;98713.50;;;2.55;60.03
34983;BME280;21187;50.976;13.720;2023-03-03T22:27:40;98724.78;;;2.52;60.16
34983;BME280;21187;50.976;13.720;2023-03-03T22:32:42;98720.78;;;2.49;59.89
34983;BME280;21187;50.976;13.720;2023-03-03T22:37:44;98713.31;;;2.51;60.14
34983;BME280;21187;50.976;13.720;2023-03-03T22:42:46;98717.00;;;2.55;60.14
34983;BME280;21187;50.976;13.720;2023-03-03T22:47:48;98712.38;;;2.61;60.42
34983;BME280;21187;50.976;13.720;2023-03-03T22:52:49;98696.59;;;2.64;59.78
34983;BME280;21187;50.976;13.720;2023-03-03T22:57:51;98703.34;;;2.57;60.34
34983;BME280;21187;50.976;13.720;2023-03-03T23:02:53;98686.78;;;2.55;60.64
34983;BME280;21187;50.976;13.720;2023-03-03T23:07:55;98685.69;;;2.56;60.06
34983;BME280;21187;50.976;13.720;2023-03-03T23:12:57;98686.22;;;2.58;60.41
34983;BME280;21187;50.976;13.720;2023-03-03T23:17:59;98683.50;;;2.63;60.36
34983;BME280;21187;50.976;13.720;2023-03-03T23:23:01;98669.59;;;2.61;60.08
34983;BME280;21187;50.976;13.720;2023-03-03T23:28:03;98676.06;;;2.55;60.59
34983;BME280;21187;50.976;13.720;2023-03-03T23:33:05;98675.53;;;2.58;60.28
34983;BME280;21187;50.976;13.720;2023-03-03T23:38:07;98657.31;;;2.60;60.13
34983;BME280;21187;50.976;13.720;2023-03-03T23:43:09;98658.91;;;2.61;60.30
34983;BME280;21187;50.976;13.720;2023-03-03T23:48:11;98654.69;;;2.55;60.21
34983;BME280;21187;50.976;13.720;2023-03-03T23:53:13;98653.66;;;2.50;60.20
34983;BME280;21187;50.976;13.720;2023-03-03T23:58:14;98652.00;;;2.55;60.80
